createdAt,value
2023-05-18T00:00:54.916Z,52.53
2023-05-18T00:03:23.971Z,53.18
2023-05-18T00:05:53.168Z,52.48
2023-05-18T00:08:22.021Z,52.71
2023-05-18T00:10:51.317Z,53.03
2023-05-18T00:13:20.293Z,52.76
2023-05-18T00:15:48.989Z,53.37
2023-05-18T00:18:17.996Z,52.49
2023-05-18T00:20:47.522Z,52.81
2023-05-18T00:23:17.045Z,52.85
2023-05-18T00:25:46.599Z,52.72
2023-05-18T00:28:15.413Z,52.77
2023-05-18T00:30:44.491Z,52.74
2023-05-18T00:33:15.406Z,52.45
2023-05-18T00:35:44.560Z,52.62
2023-05-18T00:38:16.026Z,52.56
2023-05-18T00:40:45.271Z,52.21
2023-05-18T00:43:14.275Z,53.07
2023-05-18T00:45:43.495Z,52.65
2023-05-18T00:48:12.491Z,53.06
2023-05-18T00:50:41.962Z,52.71
2023-05-18T00:53:11.647Z,51.43
2023-05-18T00:55:40.679Z,48.54
2023-05-18T00:58:09.502Z,46.25
2023-05-18T01:00:38.599Z,44.26
2023-05-18T01:03:11.012Z,42.44
2023-05-18T01:05:40.259Z,41.51
2023-05-18T01:08:10.901Z,41.00
2023-05-18T01:10:44.110Z,40.26
2023-05-18T01:13:30.224Z,40.14
2023-05-18T01:16:03.226Z,39.09
2023-05-18T01:19:01.804Z,36.88
2023-05-18T01:21:54.654Z,36.88
2023-05-18T01:24:32.241Z,36.03
2023-05-18T01:27:02.129Z,37.41
2023-05-18T01:29:32.086Z,37.25
2023-05-18T01:32:01.390Z,37.71
2023-05-18T01:34:30.809Z,37.75
2023-05-18T01:37:01.230Z,38.75
2023-05-18T01:39:30.023Z,38.41
2023-05-18T01:42:07.895Z,39.88
2023-05-18T01:44:49.401Z,41.04
2023-05-18T01:47:19.501Z,41.76
2023-05-18T01:50:03.540Z,42.52
2023-05-18T01:52:47.975Z,42.52
2023-05-18T01:55:19.100Z,43.33
2023-05-18T01:57:51.006Z,43.32
2023-05-18T02:00:20.669Z,43.74
2023-05-18T02:02:50.397Z,42.94
2023-05-18T02:05:19.948Z,42.71
2023-05-18T02:07:49.781Z,42.16
2023-05-18T02:10:18.910Z,41.93
2023-05-18T02:12:53.369Z,41.17
2023-05-18T02:15:22.981Z,40.57
2023-05-18T02:17:52.044Z,40.40
2023-05-18T02:20:20.856Z,41.10
2023-05-18T02:22:49.786Z,41.84
2023-05-18T02:25:21.162Z,41.30
2023-05-18T02:27:50.088Z,42.06
2023-05-18T02:30:19.158Z,41.42
2023-05-18T02:32:50.051Z,42.22
2023-05-18T02:35:18.972Z,42.00
2023-05-18T02:37:48.235Z,41.82
2023-05-18T02:40:17.891Z,41.99
2023-05-18T02:42:47.380Z,41.62
2023-05-18T02:45:16.385Z,41.87
2023-05-18T02:47:46.819Z,41.19
2023-05-18T02:50:15.598Z,40.36
2023-05-18T02:52:46.457Z,40.22
2023-05-18T02:55:15.138Z,40.81
2023-05-18T02:57:57.949Z,40.07
2023-05-18T03:00:43.870Z,41.19
2023-05-18T03:03:16.447Z,41.42
2023-05-18T03:05:47.203Z,42.09
2023-05-18T03:08:16.276Z,41.90
2023-05-18T03:10:46.018Z,42.04
2023-05-18T03:13:15.817Z,43.01
2023-05-18T03:15:47.879Z,42.94
2023-05-18T03:18:17.013Z,42.82
2023-05-18T03:20:46.275Z,42.98
2023-05-18T03:23:15.421Z,41.76
2023-05-18T03:25:44.327Z,41.32
2023-05-18T03:28:13.294Z,42.18
2023-05-18T03:30:42.514Z,41.84
2023-05-18T03:33:11.205Z,40.92
2023-05-18T03:35:43.221Z,41.90
2023-05-18T03:38:12.368Z,41.52
2023-05-18T03:40:45.087Z,41.23
2023-05-18T03:43:14.087Z,41.45
2023-05-18T03:45:46.118Z,40.70
2023-05-18T03:48:15.139Z,40.45
2023-05-18T03:50:44.766Z,39.72
2023-05-18T03:53:14.191Z,39.60
2023-05-18T03:55:43.963Z,39.52
2023-05-18T03:58:12.870Z,39.09
2023-05-18T04:00:43.567Z,38.87
2023-05-18T04:03:15.220Z,39.19
2023-05-18T04:05:47.426Z,39.32
2023-05-18T04:08:18.291Z,38.65
2023-05-18T04:10:47.302Z,39.14
2023-05-18T04:13:16.259Z,38.68
2023-05-18T04:15:45.033Z,38.46
2023-05-18T04:18:18.062Z,38.47
2023-05-18T04:20:46.993Z,38.22
2023-05-18T04:23:18.360Z,38.37
2023-05-18T04:25:47.302Z,38.97
2023-05-18T04:28:16.981Z,37.47
2023-05-18T04:30:46.948Z,37.69
2023-05-18T04:33:18.423Z,37.60
2023-05-18T04:35:47.480Z,37.32
2023-05-18T04:38:17.343Z,36.83
2023-05-18T04:40:46.242Z,36.52
2023-05-18T04:43:15.750Z,36.65
2023-05-18T04:45:51.466Z,36.57
2023-05-18T04:48:20.617Z,36.24
2023-05-18T04:50:50.971Z,36.88
2023-05-18T04:53:22.342Z,36.26
2023-05-18T04:55:51.462Z,36.57
2023-05-18T04:58:20.461Z,36.09
2023-05-18T05:00:49.543Z,35.83
2023-05-18T05:03:18.532Z,35.70
2023-05-18T05:05:47.541Z,35.39
2023-05-18T05:08:17.330Z,35.91
2023-05-18T05:10:46.861Z,35.48
2023-05-18T05:13:16.457Z,35.62
2023-05-18T05:15:45.428Z,35.69
2023-05-18T05:18:14.410Z,36.01
2023-05-18T05:20:43.435Z,35.91
2023-05-18T05:23:12.272Z,36.34
2023-05-18T05:25:43.460Z,35.78
2023-05-18T05:28:12.375Z,35.69
2023-05-18T05:30:42.198Z,35.67
2023-05-18T05:33:11.272Z,35.36
2023-05-18T05:35:40.318Z,35.84
2023-05-18T05:38:09.277Z,34.80
2023-05-18T05:40:38.323Z,35.07
2023-05-18T05:43:07.415Z,34.98
2023-05-18T05:45:36.856Z,34.82
2023-05-18T05:48:10.086Z,33.47
2023-05-18T05:50:41.099Z,34.19
2023-05-18T05:53:12.402Z,33.92
2023-05-18T05:55:44.705Z,33.21
2023-05-18T05:58:16.897Z,32.97
2023-05-18T06:00:51.739Z,33.64
2023-05-18T06:03:21.249Z,33.78
2023-05-18T06:05:51.130Z,34.14
2023-05-18T06:08:25.078Z,32.70
2023-05-18T06:10:56.407Z,32.65
2023-05-18T06:13:26.642Z,33.11
2023-05-18T06:15:59.795Z,32.45
2023-05-18T06:18:29.927Z,33.33
2023-05-18T06:21:02.799Z,33.32
2023-05-18T06:23:32.308Z,33.14
2023-05-18T06:26:06.357Z,33.38
2023-05-18T06:28:37.572Z,32.56
2023-05-18T06:31:36.218Z,32.17
2023-05-18T06:34:14.200Z,32.58
2023-05-18T06:36:43.117Z,31.87
2023-05-18T06:39:15.105Z,32.24
2023-05-18T06:41:46.553Z,30.90
2023-05-18T06:44:22.988Z,30.91
2023-05-18T06:47:05.995Z,31.40
2023-05-18T06:49:35.084Z,32.03
2023-05-18T06:52:04.867Z,30.98
2023-05-18T06:54:34.102Z,31.12
2023-05-18T06:57:03.049Z,31.82
2023-05-18T06:59:32.500Z,30.50
2023-05-18T07:02:01.666Z,30.97
2023-05-18T07:04:31.823Z,30.30
2023-05-18T07:07:00.914Z,31.17
2023-05-18T07:09:29.765Z,30.40
2023-05-18T07:11:58.792Z,30.46
2023-05-18T07:14:27.804Z,30.67
2023-05-18T07:16:57.155Z,30.18
2023-05-18T07:19:26.068Z,29.75
2023-05-18T07:21:55.060Z,29.35
2023-05-18T07:24:24.003Z,29.52
2023-05-18T07:26:52.932Z,30.34
2023-05-18T07:29:22.113Z,30.25
2023-05-18T07:31:50.970Z,30.27
2023-05-18T07:34:19.967Z,29.79
2023-05-18T07:36:51.880Z,29.54
2023-05-18T07:39:22.642Z,29.52
2023-05-18T07:41:51.692Z,29.23
2023-05-18T07:44:25.440Z,29.83
2023-05-18T07:46:55.145Z,29.36
2023-05-18T07:49:24.918Z,29.72
2023-05-18T07:51:54.235Z,30.01
2023-05-18T07:54:23.125Z,29.96
2023-05-18T07:56:52.522Z,29.66
2023-05-18T07:59:21.658Z,29.53
2023-05-18T08:01:50.827Z,29.76
2023-05-18T08:04:20.844Z,28.80
2023-05-18T08:06:49.787Z,28.41
2023-05-18T08:09:19.364Z,29.40
2023-05-18T08:11:48.414Z,29.24
2023-05-18T08:14:17.258Z,28.91
2023-05-18T08:16:46.326Z,28.93
2023-05-18T08:19:15.249Z,29.25
2023-05-18T08:21:44.539Z,28.71
2023-05-18T08:24:16.983Z,28.71
2023-05-18T08:26:45.946Z,27.96
2023-05-18T08:29:15.222Z,28.26
2023-05-18T08:31:44.980Z,28.30
2023-05-18T08:34:15.937Z,28.64
2023-05-18T08:36:46.342Z,28.31
2023-05-18T08:39:18.154Z,27.54
2023-05-18T08:42:07.864Z,27.52
2023-05-18T08:44:46.161Z,28.03
2023-05-18T08:47:16.962Z,27.97
2023-05-18T08:49:48.719Z,28.10
2023-05-18T08:52:20.538Z,27.50
2023-05-18T08:54:52.871Z,27.50
2023-05-18T08:57:24.880Z,27.98
2023-05-18T08:59:55.349Z,27.87
2023-05-18T09:02:25.356Z,27.65
2023-05-18T09:04:56.826Z,28.11
2023-05-18T09:07:28.426Z,27.43
2023-05-18T09:09:59.084Z,27.13
2023-05-18T09:12:29.590Z,27.86
2023-05-18T09:15:00.856Z,28.11
2023-05-18T09:17:30.284Z,28.06
2023-05-18T09:19:59.183Z,26.97
2023-05-18T09:22:29.842Z,26.77
2023-05-18T09:24:59.621Z,27.13
2023-05-18T09:27:29.096Z,27.63
2023-05-18T09:29:59.552Z,26.88
2023-05-18T09:32:28.829Z,26.47
2023-05-18T09:35:08.525Z,26.92
2023-05-18T09:37:37.990Z,26.83
2023-05-18T09:40:08.960Z,26.98
2023-05-18T09:42:41.981Z,27.63
2023-05-18T09:45:21.521Z,28.09
2023-05-18T09:47:54.548Z,28.07
2023-05-18T09:50:25.402Z,27.78
2023-05-18T09:52:55.520Z,27.46
2023-05-18T09:55:24.745Z,27.17
2023-05-18T09:57:53.726Z,27.27
2023-05-18T10:00:24.861Z,27.21
2023-05-18T10:02:54.925Z,27.91
2023-05-18T10:05:24.513Z,27.10
2023-05-18T10:07:53.499Z,27.15
2023-05-18T10:10:27.011Z,27.06
2023-05-18T10:13:01.209Z,27.30
2023-05-18T10:15:30.489Z,27.84
2023-05-18T10:18:07.352Z,27.63
2023-05-18T10:20:36.360Z,27.83
2023-05-18T10:23:08.328Z,26.83
2023-05-18T10:25:38.617Z,27.05
2023-05-18T10:28:11.246Z,26.82
2023-05-18T10:30:42.809Z,26.93
2023-05-18T10:33:27.771Z,26.94
2023-05-18T10:36:00.869Z,26.57
2023-05-18T10:38:31.590Z,26.90
2023-05-18T10:41:02.501Z,27.01
2023-05-18T10:43:31.549Z,26.93
2023-05-18T10:46:04.313Z,27.04
2023-05-18T10:48:33.705Z,27.45
2023-05-18T10:51:06.442Z,27.31
2023-05-18T10:53:37.119Z,27.57
2023-05-18T10:56:08.072Z,27.47
2023-05-18T10:58:38.653Z,27.97
2023-05-18T11:01:11.550Z,27.47
2023-05-18T11:03:44.320Z,27.79
2023-05-18T11:06:15.770Z,27.52
2023-05-18T11:08:49.313Z,27.69
2023-05-18T11:11:19.644Z,27.73
2023-05-18T11:13:55.160Z,27.54
2023-05-18T11:16:36.974Z,28.10
2023-05-18T11:19:13.164Z,27.75
2023-05-18T11:21:43.582Z,28.21
2023-05-18T11:24:20.801Z,28.31
2023-05-18T11:26:51.040Z,27.94
2023-05-18T11:29:25.510Z,28.02
2023-05-18T11:31:56.230Z,27.91
2023-05-18T11:34:48.622Z,27.85
2023-05-18T11:37:38.872Z,28.04
2023-05-18T11:40:12.309Z,27.92
2023-05-18T11:42:41.338Z,28.07
2023-05-18T11:45:12.623Z,28.03
2023-05-18T11:47:41.932Z,27.92
2023-05-18T11:50:17.512Z,28.00
2023-05-18T11:52:55.686Z,28.10
2023-05-18T11:55:39.757Z,27.89
2023-05-18T11:58:10.679Z,28.17
2023-05-18T12:00:40.392Z,27.74
2023-05-18T12:03:09.841Z,28.00
2023-05-18T12:05:39.316Z,27.49
2023-05-18T12:08:12.536Z,27.34
2023-05-18T12:10:41.957Z,27.18
2023-05-18T12:13:10.973Z,27.51
2023-05-18T12:15:40.877Z,27.76
2023-05-18T12:18:10.425Z,27.71
2023-05-18T12:20:42.390Z,27.32
2023-05-18T12:23:11.079Z,27.77
2023-05-18T12:25:39.956Z,28.07
2023-05-18T12:28:09.639Z,27.66
2023-05-18T12:30:44.812Z,27.77
2023-05-18T12:33:13.843Z,27.42
2023-05-18T12:35:43.764Z,28.14
2023-05-18T12:38:12.938Z,27.80
2023-05-18T12:40:49.584Z,27.88
2023-05-18T12:43:18.718Z,27.62
2023-05-18T12:45:47.556Z,27.57
2023-05-18T12:48:16.686Z,27.77
2023-05-18T12:50:52.154Z,27.70
2023-05-18T12:53:21.745Z,28.05
2023-05-18T12:56:00.930Z,27.86
2023-05-18T12:58:29.737Z,27.95
2023-05-18T13:00:58.814Z,27.83
2023-05-18T13:03:34.455Z,28.00
2023-05-18T13:06:08.777Z,27.91
2023-05-18T13:08:38.548Z,27.78
2023-05-18T13:11:14.451Z,27.30
2023-05-18T13:14:05.223Z,27.28
2023-05-18T13:16:40.583Z,27.47
2023-05-18T13:19:11.273Z,27.97
2023-05-18T13:21:40.380Z,28.03
2023-05-18T13:24:09.480Z,27.86
2023-05-18T13:26:41.322Z,27.80
2023-05-18T13:29:10.064Z,27.63
2023-05-18T13:31:38.977Z,28.02
2023-05-18T13:34:07.877Z,28.39
2023-05-18T13:36:37.347Z,28.08
2023-05-18T13:39:07.963Z,28.18
2023-05-18T13:41:37.440Z,27.74
2023-05-18T13:44:06.294Z,27.80
2023-05-18T13:46:38.444Z,28.46
2023-05-18T13:49:07.392Z,28.89
2023-05-18T13:51:36.336Z,28.41
2023-05-18T13:54:06.006Z,29.11
2023-05-18T13:56:34.867Z,28.34
2023-05-18T13:59:04.608Z,28.75
2023-05-18T14:01:33.619Z,28.48
2023-05-18T14:04:02.573Z,28.66
2023-05-18T14:06:32.428Z,29.70
2023-05-18T14:09:01.418Z,29.88
2023-05-18T14:11:30.376Z,29.52
2023-05-18T14:13:59.327Z,29.84
2023-05-18T14:16:31.071Z,30.41
2023-05-18T14:19:00.028Z,30.18
2023-05-18T14:21:29.056Z,29.33
2023-05-18T14:23:58.117Z,30.02
2023-05-18T14:26:27.514Z,30.70
2023-05-18T14:28:56.704Z,30.64
2023-05-18T14:31:25.871Z,31.40
2023-05-18T14:33:54.900Z,30.91
2023-05-18T14:36:26.688Z,31.02
2023-05-18T14:38:55.847Z,31.49
2023-05-18T14:41:24.900Z,31.31
2023-05-18T14:43:54.498Z,32.06
2023-05-18T14:46:23.867Z,31.92
2023-05-18T14:48:52.836Z,31.81
2023-05-18T14:51:22.961Z,32.54
2023-05-18T14:53:51.969Z,32.90
2023-05-18T14:56:21.256Z,33.21
2023-05-18T14:58:50.018Z,34.20
2023-05-18T15:01:18.932Z,33.96
2023-05-18T15:03:48.029Z,35.14
2023-05-18T15:06:17.079Z,35.69
2023-05-18T15:08:46.338Z,35.68
2023-05-18T15:11:14.920Z,36.10
2023-05-18T15:13:44.938Z,35.81
2023-05-18T15:16:15.513Z,36.32
2023-05-18T15:18:44.503Z,36.35
2023-05-18T15:21:13.587Z,36.84
2023-05-18T15:23:42.581Z,37.50
2023-05-18T15:26:11.398Z,37.14
2023-05-18T15:28:41.860Z,37.86
2023-05-18T15:31:11.386Z,38.41
2023-05-18T15:33:43.225Z,38.42
2023-05-18T15:36:12.282Z,39.47
2023-05-18T15:38:41.897Z,39.28
2023-05-18T15:41:10.685Z,39.68
2023-05-18T15:43:40.100Z,40.13
2023-05-18T15:46:08.911Z,39.78
2023-05-18T15:48:37.902Z,40.31
2023-05-18T15:51:06.853Z,40.18
2023-05-18T15:53:35.602Z,40.86
2023-05-18T15:56:04.696Z,41.03
2023-05-18T15:58:36.657Z,41.19
2023-05-18T16:01:05.443Z,41.06
2023-05-18T16:03:34.723Z,41.24
2023-05-18T16:06:03.845Z,41.78
2023-05-18T16:08:32.762Z,41.60
2023-05-18T16:11:03.146Z,42.05
2023-05-18T16:13:32.240Z,42.58
2023-05-18T16:16:01.626Z,43.35
2023-05-18T16:18:30.713Z,43.87
2023-05-18T16:20:59.565Z,43.01
2023-05-18T16:23:28.534Z,44.08
2023-05-18T16:25:57.364Z,44.11
2023-05-18T16:28:26.524Z,43.82
2023-05-18T16:30:55.512Z,44.13
2023-05-18T16:33:27.988Z,43.90
2023-05-18T16:35:59.193Z,43.67
2023-05-18T16:38:28.508Z,43.48
2023-05-18T16:40:57.579Z,43.79
2023-05-18T16:43:26.308Z,43.59
2023-05-18T16:45:55.518Z,43.63
2023-05-18T16:48:24.426Z,44.36
2023-05-18T16:50:53.221Z,43.19
2023-05-18T16:53:22.050Z,43.45
2023-05-18T16:55:50.983Z,44.15
2023-05-18T16:58:20.200Z,44.43
2023-05-18T17:00:49.479Z,44.45
2023-05-18T17:03:18.547Z,45.29
2023-05-18T17:05:47.479Z,45.45
2023-05-18T17:08:16.547Z,46.27
2023-05-18T17:10:45.431Z,46.54
2023-05-18T17:13:14.319Z,46.95
2023-05-18T17:15:43.771Z,47.63
2023-05-18T17:18:12.770Z,47.52
2023-05-18T17:20:41.726Z,47.94
2023-05-18T17:23:18.156Z,47.31
2023-05-18T17:25:48.543Z,47.73
2023-05-18T17:28:19.681Z,47.90
2023-05-18T17:30:48.588Z,48.57
2023-05-18T17:33:17.653Z,48.40
2023-05-18T17:35:46.906Z,48.76
2023-05-18T17:38:17.888Z,48.87
2023-05-18T17:40:49.573Z,48.85
2023-05-18T17:43:19.580Z,49.04
2023-05-18T17:45:49.196Z,49.21
2023-05-18T17:48:17.946Z,49.03
2023-05-18T17:50:48.971Z,49.20
2023-05-18T17:53:19.403Z,49.41
2023-05-18T17:55:49.194Z,49.85
2023-05-18T17:58:17.852Z,50.00
2023-05-18T18:00:46.807Z,50.12
2023-05-18T18:03:15.917Z,49.92
2023-05-18T18:05:45.340Z,49.99
2023-05-18T18:08:16.975Z,49.90
2023-05-18T18:10:46.119Z,50.08
2023-05-18T18:13:15.020Z,50.35
2023-05-18T18:15:43.994Z,50.23
2023-05-18T18:18:13.146Z,50.00
2023-05-18T18:20:42.649Z,50.43
2023-05-18T18:23:11.819Z,50.25
2023-05-18T18:25:41.627Z,50.25
2023-05-18T18:28:15.445Z,50.43
2023-05-18T18:30:45.315Z,50.05
2023-05-18T18:33:15.404Z,50.38
2023-05-18T18:35:44.605Z,49.97
2023-05-18T18:38:16.348Z,50.13
2023-05-18T18:40:45.309Z,50.07
2023-05-18T18:43:14.678Z,49.46
2023-05-18T18:45:43.380Z,49.81
2023-05-18T18:48:12.257Z,49.85
2023-05-18T18:50:41.312Z,49.65
2023-05-18T18:53:10.269Z,49.97
2023-05-18T18:55:39.183Z,49.71
2023-05-18T18:58:09.019Z,50.10
2023-05-18T19:00:38.185Z,50.67
2023-05-18T19:03:07.092Z,50.86
2023-05-18T19:05:36.683Z,51.08
2023-05-18T19:08:05.602Z,51.01
2023-05-18T19:10:35.276Z,51.32
2023-05-18T19:13:06.386Z,51.09
2023-05-18T19:15:35.917Z,51.26
2023-05-18T19:18:08.644Z,51.23
2023-05-18T19:20:37.702Z,51.27
2023-05-18T19:23:06.833Z,51.39
2023-05-18T19:25:35.917Z,51.29
2023-05-18T19:28:04.699Z,51.79
2023-05-18T19:30:33.712Z,52.29
2023-05-18T19:33:02.545Z,52.47
2023-05-18T19:35:33.356Z,52.17
2023-05-18T19:38:03.212Z,52.20
2023-05-18T19:40:32.167Z,52.23
2023-05-18T19:43:02.454Z,52.72
2023-05-18T19:45:31.686Z,52.86
2023-05-18T19:48:01.043Z,53.21
2023-05-18T19:50:29.840Z,52.87
2023-05-18T19:52:58.773Z,53.28
2023-05-18T19:55:28.285Z,53.34
2023-05-18T19:57:57.096Z,53.71
2023-05-18T20:00:27.251Z,54.42
2023-05-18T20:02:56.821Z,54.53
2023-05-18T20:05:26.466Z,54.15
2023-05-18T20:07:55.773Z,54.48
2023-05-18T20:10:25.375Z,54.89
2023-05-18T20:12:54.563Z,54.92
2023-05-18T20:15:23.652Z,55.11
2023-05-18T20:17:52.697Z,54.98
2023-05-18T20:20:21.717Z,55.24
2023-05-18T20:22:50.618Z,55.31
2023-05-18T20:25:20.576Z,55.36
2023-05-18T20:27:49.474Z,55.86
2023-05-18T20:30:18.478Z,55.57
2023-05-18T20:32:47.465Z,55.99
2023-05-18T20:35:17.630Z,55.85
2023-05-18T20:37:48.556Z,55.63
2023-05-18T20:40:17.518Z,56.37
2023-05-18T20:42:46.375Z,56.26
2023-05-18T20:45:16.896Z,56.40
2023-05-18T20:47:46.307Z,56.55
2023-05-18T20:50:15.221Z,56.46
2023-05-18T20:52:44.248Z,56.42
2023-05-18T20:55:14.769Z,56.64
2023-05-18T20:57:45.480Z,56.48
2023-05-18T21:00:19.160Z,56.45
2023-05-18T21:02:49.117Z,56.14
2023-05-18T21:05:17.935Z,56.57
2023-05-18T21:07:47.071Z,56.32
2023-05-18T21:10:16.918Z,56.50
2023-05-18T21:12:46.100Z,56.47
2023-05-18T21:15:14.959Z,56.55
2023-05-18T21:17:43.926Z,56.14
2023-05-18T21:20:13.346Z,56.09
2023-05-18T21:22:42.292Z,56.09
2023-05-18T21:25:11.276Z,56.34
2023-05-18T21:27:40.260Z,55.86
2023-05-18T21:30:09.932Z,56.40
2023-05-18T21:32:39.096Z,56.14
2023-05-18T21:35:08.174Z,56.36
2023-05-18T21:37:37.340Z,55.84
2023-05-18T21:40:07.672Z,56.72
2023-05-18T21:42:37.039Z,56.27
2023-05-18T21:45:06.424Z,56.32
2023-05-18T21:47:35.151Z,56.07
2023-05-18T21:50:05.244Z,56.51
2023-05-18T21:52:34.085Z,56.54
2023-05-18T21:55:02.994Z,56.77
2023-05-18T21:57:33.480Z,56.71
2023-05-18T22:00:03.115Z,56.84
2023-05-18T22:02:41.715Z,56.74
2023-05-18T22:05:11.514Z,56.79
2023-05-18T22:07:40.367Z,57.22
2023-05-18T22:10:09.384Z,57.28
2023-05-18T22:12:38.609Z,57.53
2023-05-18T22:15:08.447Z,57.37
2023-05-18T22:17:38.012Z,57.26
2023-05-18T22:20:12.006Z,57.72
2023-05-18T22:22:41.981Z,57.52
2023-05-18T22:25:10.976Z,57.73
2023-05-18T22:27:40.003Z,57.88
2023-05-18T22:30:09.817Z,58.45
2023-05-18T22:32:39.494Z,58.09
2023-05-18T22:35:09.377Z,58.03
2023-05-18T22:37:38.432Z,58.17
2023-05-18T22:40:07.930Z,58.03
2023-05-18T22:42:37.343Z,58.19
2023-05-18T22:45:06.829Z,58.17
2023-05-18T22:47:36.098Z,58.55
2023-05-18T22:50:05.127Z,58.48
2023-05-18T22:52:35.736Z,58.53
2023-05-18T22:55:13.968Z,58.70
2023-05-18T22:57:44.430Z,58.55
2023-05-18T23:00:15.081Z,58.78
2023-05-18T23:02:44.024Z,58.75
2023-05-18T23:05:14.178Z,58.74
2023-05-18T23:07:43.157Z,58.79
2023-05-18T23:10:12.849Z,58.87
2023-05-18T23:12:42.273Z,58.78
2023-05-18T23:15:11.651Z,58.48
2023-05-18T23:17:40.523Z,57.74
2023-05-18T23:20:11.268Z,57.49
2023-05-18T23:22:39.939Z,55.92
2023-05-18T23:25:10.711Z,55.12
2023-05-18T23:27:39.615Z,53.54
2023-05-18T23:30:08.990Z,52.50
2023-05-18T23:32:38.656Z,52.02
2023-05-18T23:35:08.833Z,50.54
2023-05-18T23:37:42.043Z,49.62
2023-05-18T23:40:14.540Z,48.55
2023-05-18T23:42:43.677Z,47.52
2023-05-18T23:45:13.273Z,46.96
2023-05-18T23:47:42.502Z,46.03
2023-05-18T23:50:12.004Z,45.12
2023-05-18T23:52:43.134Z,44.52
2023-05-18T23:55:13.417Z,44.83
2023-05-18T23:57:42.622Z,46.83
